Grand Forks Air Force Base
KRDR : now visible

Airfield :











YOU CAN JOIN US ON...

 
LOGIN :

Register | Disclaimer

   EN    FR    IT 

 









Legend :    VFR   Marginal VFR   IFR   Intensive IFR   Very Intensive IFR
Visi :
Ceiling :
>= 8 km
>= 3000ft
5 to 8 km
1000 to 3000 ft
1500m to 5 km
500 to 1000 ft
800 to 1500m
200 to 500 ft
< 800m
< 200 ft
Symbols :   Thunderstorms  Fog  Heavy snow  Heavy precipitations  Wind > 20 kt






- Airport Elevation : 913 ft


KRDR - Grand Forks Air Force Base

CURRENT METAR :
  • 061456Z COR AUTO 20005KT 10SM SCT085 BKN200 M14/M15 A3029 RMK AO2A SLP282 T11371154 57009 COR 1459

EXPIRED METARs :
  • 061356Z AUTO 22006KT 10SM CLR M16/M18 A3030 RMK AO2 SLP287 T11631181
  • 061256Z AUTO 20005KT 10SM CLR M17/M19 A3030 RMK AO2 SLP288 T11721194

TAF TAF KRDR
Valid from the 06 at 10:00 until the 07 at 16:00 UTC


061000Z 0610/0716 VRB06KT 9999 SCT020 QNH3031INS
BECMG 0612/0613 VRB06KT 9999 FEW020 SCT150 QNH3022INS
BECMG 0619/0620 19009KT 9999 OVC010 620109 QNH3013INS
BECMG 0623/0624 20009KT 9999 OVC007 620076 QNH2998INS
TEMPO 0708/0712 VRB06KT 0600 FZFG 620007 TX01/0704Z TNM18/0612Z



MET'MAP, your aeronautical weather chart ! - Copyright ORBIFLY December 2007 - Disclaimer

ORBIFLY MET'MAP TEAM :

Programming & Development : Alexandra Zaïnal
Concept & original design : Baudouin d'Aumeries
Assistance for programming : Marc-Olivier Méhu
Technical & hardware support : Manuel Goepfert

Contact : metmap@orbifly.com




SOURCES & CREDITS :

   NOAA       Earth
Advisory